Rockton, Illinois
Current Conditions -  °F | °C
As of 6:45 PM on Monday 22 Dec 2014 (Local Time) from KJVL Reporting Station
Haze Haze  
Wind Chill: 32°   Ceiling: 600
Heat Index: 37°   Visibility: 2mi
Dew Point: 36°   Wind: 7mph
Humidity: 93%   Direction: 100°E
Pressure: 29.63"   Gusts: NA
Location:  42.45°N, 89.07°W
Report Text: KJVL 230045Z 10006KT 2SM BR OVC006 03/02 A2963
Loading
Personal Weather Stations






























Interactive Weather Map New forecast layout! Learn more

10-Day Weather Forecast

Advertisements
Track Severe Weather on mobile